createdAt,value
2018-06-09T00:01:33.899Z,20.08
2018-06-09T00:04:02.201Z,19.87
2018-06-09T00:06:30.360Z,19.83
2018-06-09T00:08:58.725Z,19.83
2018-06-09T00:11:27.066Z,19.79
2018-06-09T00:13:55.269Z,19.77
2018-06-09T00:16:23.494Z,19.79
2018-06-09T00:18:52.742Z,19.69
2018-06-09T00:21:21.099Z,19.82
2018-06-09T00:23:49.317Z,19.73
2018-06-09T00:26:17.745Z,19.65
2018-06-09T00:28:45.925Z,19.59
2018-06-09T00:31:14.229Z,19.58
2018-06-09T00:33:42.600Z,19.60
2018-06-09T00:36:11.296Z,19.62
2018-06-09T00:38:39.651Z,19.64
2018-06-09T00:41:07.967Z,19.64
2018-06-09T00:43:36.166Z,19.60
2018-06-09T00:46:04.377Z,19.53
2018-06-09T00:48:32.737Z,19.58
2018-06-09T00:51:00.932Z,19.65
2018-06-09T00:53:29.096Z,19.62
2018-06-09T00:56:08.557Z,19.60
2018-06-09T00:58:36.695Z,19.57
2018-06-09T01:01:04.887Z,19.55
2018-06-09T01:03:33.055Z,19.59
2018-06-09T01:06:01.193Z,19.59
2018-06-09T01:08:29.380Z,19.67
2018-06-09T01:10:57.607Z,19.67
2018-06-09T01:13:25.730Z,19.64
2018-06-09T01:15:53.884Z,19.72
2018-06-09T01:18:22.036Z,19.63
2018-06-09T01:20:50.163Z,19.72
2018-06-09T01:23:18.410Z,19.76
2018-06-09T01:25:46.581Z,19.67
2018-06-09T01:28:14.743Z,19.68
2018-06-09T01:30:42.914Z,19.64
2018-06-09T01:33:11.077Z,19.59
2018-06-09T01:35:39.224Z,19.59
2018-06-09T01:38:07.370Z,19.50
2018-06-09T01:40:35.502Z,19.39
2018-06-09T01:43:03.663Z,19.41
2018-06-09T01:45:31.807Z,19.36
2018-06-09T01:48:00.008Z,19.36
2018-06-09T01:50:28.142Z,19.46
2018-06-09T01:52:56.307Z,19.39
2018-06-09T01:55:24.511Z,19.32
2018-06-09T01:57:52.650Z,19.27
2018-06-09T02:00:20.827Z,19.26
2018-06-09T02:02:48.984Z,19.28
2018-06-09T02:05:17.139Z,19.31
2018-06-09T02:07:45.292Z,19.35
2018-06-09T02:10:13.470Z,19.33
2018-06-09T02:12:41.605Z,19.29
2018-06-09T02:15:09.772Z,19.27
2018-06-09T02:17:37.950Z,19.19
2018-06-09T02:20:06.143Z,19.17
2018-06-09T02:22:34.292Z,19.21
2018-06-09T02:25:02.499Z,19.16
2018-06-09T02:27:30.640Z,19.21
2018-06-09T02:29:58.818Z,19.08
2018-06-09T02:32:27.003Z,19.08
2018-06-09T02:34:55.163Z,19.10
2018-06-09T02:37:23.310Z,18.92
2018-06-09T02:39:51.459Z,18.83
2018-06-09T02:42:19.623Z,18.80
2018-06-09T02:44:47.796Z,18.74
2018-06-09T02:47:15.982Z,18.69
2018-06-09T02:49:44.134Z,18.62
2018-06-09T02:52:12.309Z,18.62
2018-06-09T02:54:45.470Z,18.62
2018-06-09T02:57:13.626Z,18.61
2018-06-09T02:59:41.816Z,18.54
2018-06-09T03:02:09.968Z,18.53
2018-06-09T03:04:38.104Z,18.64
2018-06-09T03:07:06.323Z,18.67
2018-06-09T03:09:34.463Z,18.54
2018-06-09T03:12:02.718Z,18.50
2018-06-09T03:14:30.872Z,18.52
2018-06-09T03:16:59.060Z,18.56
2018-06-09T03:19:27.204Z,18.57
2018-06-09T03:21:55.352Z,18.57
2018-06-09T03:24:23.526Z,18.64
2018-06-09T03:26:51.772Z,18.63
2018-06-09T03:29:19.906Z,18.70
2018-06-09T03:31:48.063Z,18.65
2018-06-09T03:34:16.214Z,18.53
2018-06-09T03:36:44.373Z,18.58
2018-06-09T03:39:12.514Z,18.59
2018-06-09T03:41:40.668Z,18.61
2018-06-09T03:44:08.851Z,18.61
2018-06-09T03:46:37.011Z,18.67
2018-06-09T03:49:05.248Z,18.67
2018-06-09T03:51:33.407Z,18.57
2018-06-09T03:54:01.568Z,18.60
2018-06-09T03:56:29.723Z,18.55
2018-06-09T03:58:57.878Z,18.47
2018-06-09T04:01:26.053Z,18.48
2018-06-09T04:03:54.321Z,18.56
2018-06-09T04:06:22.491Z,18.58
2018-06-09T04:08:50.688Z,18.61
2018-06-09T04:11:18.949Z,18.73
2018-06-09T04:13:47.070Z,18.75
2018-06-09T04:16:15.280Z,18.73
2018-06-09T04:18:43.424Z,18.76
2018-06-09T04:21:11.833Z,18.80
2018-06-09T04:23:39.956Z,18.89
2018-06-09T04:26:08.180Z,19.01
2018-06-09T04:28:36.319Z,19.14
2018-06-09T04:31:04.492Z,19.13
2018-06-09T04:33:32.658Z,19.16
2018-06-09T04:36:00.776Z,19.21
2018-06-09T04:38:28.932Z,19.33
2018-06-09T04:40:57.080Z,19.37
2018-06-09T04:43:25.303Z,19.51
2018-06-09T04:45:53.479Z,19.58
2018-06-09T04:48:21.647Z,19.68
2018-06-09T04:50:49.821Z,19.80
2018-06-09T04:53:17.959Z,19.99
2018-06-09T04:55:46.111Z,20.16
2018-06-09T04:58:14.341Z,20.24
2018-06-09T05:00:42.486Z,20.27
2018-06-09T05:03:10.639Z,20.47
2018-06-09T05:05:38.811Z,20.62
2018-06-09T05:08:06.965Z,20.84
2018-06-09T05:10:35.123Z,21.08
2018-06-09T05:13:03.302Z,21.38
2018-06-09T05:15:31.425Z,21.54
2018-06-09T05:17:59.647Z,21.72
2018-06-09T05:20:27.796Z,21.88
2018-06-09T05:22:55.955Z,22.12
2018-06-09T05:25:24.115Z,22.25
2018-06-09T05:27:52.266Z,22.39
2018-06-09T05:30:20.399Z,22.42
2018-06-09T05:32:48.626Z,22.49
2018-06-09T05:35:16.808Z,22.48
2018-06-09T05:37:44.963Z,22.23
2018-06-09T05:40:13.111Z,21.93
2018-06-09T05:42:41.258Z,22.05
2018-06-09T05:45:09.403Z,22.13
2018-06-09T05:47:37.587Z,22.35
2018-06-09T05:50:05.735Z,22.24
2018-06-09T05:52:34.185Z,22.11
2018-06-09T05:55:02.323Z,22.03
2018-06-09T05:57:30.460Z,22.05
2018-06-09T05:59:58.731Z,21.87
2018-06-09T06:02:26.907Z,21.88
2018-06-09T06:04:55.033Z,22.21
2018-06-09T06:07:23.179Z,22.69
2018-06-09T06:09:51.375Z,22.62
2018-06-09T06:12:19.594Z,22.49
2018-06-09T06:14:47.724Z,22.67
2018-06-09T06:17:15.874Z,22.75
2018-06-09T06:19:44.032Z,22.56
2018-06-09T06:22:12.187Z,22.57
2018-06-09T06:24:40.339Z,22.38
2018-06-09T06:27:08.483Z,22.25
2018-06-09T06:29:36.643Z,22.35
2018-06-09T06:32:04.802Z,22.44
2018-06-09T06:34:32.938Z,22.44
2018-06-09T06:37:01.105Z,22.80
2018-06-09T06:39:29.270Z,22.96
2018-06-09T06:41:57.436Z,22.86
2018-06-09T06:44:25.612Z,22.86
2018-06-09T06:46:53.799Z,23.10
2018-06-09T06:49:21.976Z,23.17
2018-06-09T06:51:50.143Z,23.25
2018-06-09T06:54:18.278Z,23.40
2018-06-09T06:56:46.419Z,23.33
2018-06-09T06:59:14.654Z,23.52
2018-06-09T07:01:42.820Z,23.45
2018-06-09T07:04:10.967Z,23.47
2018-06-09T07:06:39.123Z,23.51
2018-06-09T07:09:08.287Z,23.70
2018-06-09T07:11:36.692Z,23.83
2018-06-09T07:14:04.845Z,23.93
2018-06-09T07:16:33.005Z,24.19
2018-06-09T07:19:01.407Z,24.08
2018-06-09T07:21:29.551Z,24.01
2018-06-09T07:23:57.814Z,23.94
2018-06-09T07:26:26.069Z,24.13
2018-06-09T07:28:54.195Z,24.37
2018-06-09T07:31:22.349Z,24.66
2018-06-09T07:33:50.551Z,24.58
2018-06-09T07:36:18.683Z,24.82
2018-06-09T07:38:46.830Z,24.79
2018-06-09T07:41:15.017Z,24.87
2018-06-09T07:43:43.175Z,24.94
2018-06-09T07:46:11.359Z,24.95
2018-06-09T07:48:39.554Z,25.06
2018-06-09T07:51:07.706Z,24.92
2018-06-09T07:53:35.895Z,24.83
2018-06-09T07:56:04.123Z,24.82
2018-06-09T07:58:32.376Z,25.00
2018-06-09T08:01:01.140Z,24.98
2018-06-09T08:03:29.284Z,25.31
2018-06-09T08:05:58.299Z,25.46
2018-06-09T08:08:26.440Z,25.42
2018-06-09T08:10:54.597Z,25.48
2018-06-09T08:13:22.772Z,25.18
2018-06-09T08:15:50.936Z,25.46
2018-06-09T08:18:19.084Z,25.53
2018-06-09T08:20:47.384Z,25.71
2018-06-09T08:23:15.796Z,25.79
2018-06-09T08:25:44.303Z,25.70
2018-06-09T08:28:12.585Z,25.83
2018-06-09T08:30:40.723Z,25.79
2018-06-09T08:33:08.896Z,25.98
2018-06-09T08:35:37.059Z,25.88
2018-06-09T08:38:05.753Z,25.62
2018-06-09T08:40:33.946Z,25.90
2018-06-09T08:43:02.109Z,26.21
2018-06-09T08:45:30.256Z,26.19
2018-06-09T08:47:58.409Z,26.18
2018-06-09T08:50:26.581Z,26.41
2018-06-09T08:52:55.207Z,26.42
2018-06-09T08:55:23.359Z,26.39
2018-06-09T08:57:51.510Z,26.52
2018-06-09T09:00:19.638Z,26.60
2018-06-09T09:02:47.859Z,26.46
2018-06-09T09:05:16.007Z,26.66
2018-06-09T09:07:44.156Z,26.78
2018-06-09T09:10:12.357Z,26.66
2018-06-09T09:12:40.497Z,26.76
2018-06-09T09:15:08.687Z,26.76
2018-06-09T09:17:36.814Z,26.49
2018-06-09T09:20:04.964Z,26.61
2018-06-09T09:22:33.122Z,26.73
2018-06-09T09:25:01.275Z,26.63
2018-06-09T09:27:29.414Z,26.64
2018-06-09T09:29:57.571Z,26.40
2018-06-09T09:32:25.728Z,26.56
2018-06-09T09:34:53.886Z,26.61
2018-06-09T09:37:22.034Z,26.82
2018-06-09T09:39:50.197Z,26.87
2018-06-09T09:42:18.386Z,27.00
2018-06-09T09:44:46.548Z,26.86
2018-06-09T09:47:14.710Z,27.09
2018-06-09T09:49:42.924Z,27.17
2018-06-09T09:52:11.068Z,27.35
2018-06-09T09:54:40.524Z,27.54
2018-06-09T09:57:08.667Z,27.56
2018-06-09T09:59:36.848Z,27.56
2018-06-09T10:02:05.008Z,27.31
2018-06-09T10:04:33.212Z,27.38
2018-06-09T10:07:01.379Z,27.58
2018-06-09T10:09:29.592Z,27.67
2018-06-09T10:11:57.824Z,27.84
2018-06-09T10:14:25.975Z,27.51
2018-06-09T10:17:00.652Z,27.81
2018-06-09T10:19:28.814Z,27.91
2018-06-09T10:21:56.949Z,28.04
2018-06-09T10:24:25.145Z,27.85
2018-06-09T10:26:53.433Z,27.95
2018-06-09T10:29:21.602Z,28.06
2018-06-09T10:31:49.776Z,28.29
2018-06-09T10:34:17.975Z,28.45
2018-06-09T10:36:46.162Z,28.53
2018-06-09T10:39:14.364Z,28.60
2018-06-09T10:41:42.600Z,28.61
2018-06-09T10:44:10.744Z,28.53
2018-06-09T10:46:38.894Z,28.64
2018-06-09T10:49:07.077Z,28.72
2018-06-09T10:51:35.256Z,28.92
2018-06-09T10:54:03.418Z,28.85
2018-06-09T10:56:31.590Z,29.04
2018-06-09T10:58:59.735Z,29.15
2018-06-09T11:01:27.883Z,29.22
2018-06-09T11:03:56.040Z,29.29
2018-06-09T11:06:24.199Z,29.44
2018-06-09T11:08:52.354Z,29.41
2018-06-09T11:11:20.515Z,29.49
2018-06-09T11:13:48.760Z,29.25
2018-06-09T11:16:16.896Z,29.41
2018-06-09T11:18:45.092Z,29.43
2018-06-09T11:21:13.285Z,29.47
2018-06-09T11:23:41.419Z,29.51
2018-06-09T11:26:09.570Z,29.54
2018-06-09T11:28:37.744Z,29.62
2018-06-09T11:31:05.880Z,29.36
2018-06-09T11:33:34.037Z,29.55
2018-06-09T11:36:02.207Z,29.68
2018-06-09T11:38:30.441Z,29.50
2018-06-09T11:40:58.671Z,29.55
2018-06-09T11:43:26.827Z,29.71
2018-06-09T11:45:55.033Z,29.78
2018-06-09T11:48:23.233Z,29.75
2018-06-09T11:50:51.375Z,29.68
2018-06-09T11:53:19.524Z,29.68
2018-06-09T11:55:47.727Z,29.79
2018-06-09T11:58:15.884Z,29.79
2018-06-09T12:00:44.023Z,29.96
2018-06-09T12:03:12.191Z,29.96
2018-06-09T12:05:40.479Z,30.21
2018-06-09T12:08:08.575Z,30.22
2018-06-09T12:10:36.786Z,29.96
2018-06-09T12:13:04.936Z,30.13
2018-06-09T12:15:33.115Z,30.29
2018-06-09T12:18:01.263Z,30.01
2018-06-09T12:20:29.478Z,29.93
2018-06-09T12:22:57.608Z,30.15
2018-06-09T12:25:25.750Z,30.27
2018-06-09T12:27:53.872Z,30.22
2018-06-09T12:30:22.012Z,30.22
2018-06-09T12:32:50.201Z,30.38
2018-06-09T12:35:18.329Z,30.59
2018-06-09T12:37:46.480Z,30.69
2018-06-09T12:40:14.629Z,30.67
2018-06-09T12:42:42.763Z,30.72
2018-06-09T12:45:10.900Z,30.64
2018-06-09T12:47:39.071Z,30.89
2018-06-09T12:50:07.222Z,30.93
2018-06-09T12:52:35.346Z,31.01
2018-06-09T12:55:03.508Z,30.77
2018-06-09T12:57:31.668Z,30.67
2018-06-09T12:59:59.810Z,30.88
2018-06-09T13:02:27.950Z,30.76
2018-06-09T13:04:56.082Z,30.59
2018-06-09T13:07:24.216Z,30.75
2018-06-09T13:09:52.394Z,30.81
2018-06-09T13:12:20.595Z,30.72
2018-06-09T13:14:48.727Z,30.61
2018-06-09T13:17:16.868Z,30.71
2018-06-09T13:19:45.026Z,30.59
2018-06-09T13:22:13.176Z,30.53
2018-06-09T13:24:41.343Z,30.51
2018-06-09T13:27:09.481Z,30.55
2018-06-09T13:29:37.619Z,30.45
2018-06-09T13:32:05.758Z,30.40
2018-06-09T13:34:33.896Z,30.50
2018-06-09T13:37:02.039Z,30.54
2018-06-09T13:39:30.166Z,30.33
2018-06-09T13:41:58.315Z,30.48
2018-06-09T13:44:26.448Z,30.41
2018-06-09T13:46:54.709Z,30.30
2018-06-09T13:49:22.791Z,30.41
2018-06-09T13:51:50.951Z,30.53
2018-06-09T13:54:19.108Z,30.70
2018-06-09T13:56:47.219Z,30.92
2018-06-09T13:59:15.380Z,31.04
2018-06-09T14:01:43.560Z,31.15
2018-06-09T14:04:11.701Z,31.01
2018-06-09T14:06:39.828Z,31.18
2018-06-09T14:09:08.360Z,31.19
2018-06-09T14:11:36.511Z,31.38
2018-06-09T14:14:04.676Z,31.41
2018-06-09T14:16:32.840Z,31.42
2018-06-09T14:19:00.995Z,31.42
2018-06-09T14:21:29.155Z,31.33
2018-06-09T14:23:57.289Z,31.41
2018-06-09T14:26:25.429Z,31.30
2018-06-09T14:28:53.560Z,31.37
2018-06-09T14:31:21.736Z,31.35
2018-06-09T14:33:49.862Z,31.21
2018-06-09T14:36:18.027Z,31.22
2018-06-09T14:38:46.302Z,31.25
2018-06-09T14:41:14.402Z,31.21
2018-06-09T14:43:42.556Z,31.11
2018-06-09T14:46:10.703Z,31.02
2018-06-09T14:48:38.833Z,31.09
2018-06-09T14:51:06.982Z,31.10
2018-06-09T14:53:35.123Z,30.89
2018-06-09T14:56:03.278Z,30.92
2018-06-09T14:58:31.399Z,31.00
2018-06-09T15:00:59.540Z,31.01
2018-06-09T15:03:27.660Z,31.00
2018-06-09T15:05:55.816Z,30.93
2018-06-09T15:08:23.988Z,30.57
2018-06-09T15:10:52.156Z,30.02
2018-06-09T15:13:20.298Z,29.97
2018-06-09T15:15:48.439Z,29.39
2018-06-09T15:18:16.575Z,28.89
2018-06-09T15:20:44.711Z,28.78
2018-06-09T15:23:12.834Z,28.66
2018-06-09T15:25:40.989Z,28.19
2018-06-09T15:28:09.184Z,28.07
2018-06-09T15:30:37.287Z,28.23
2018-06-09T15:33:05.439Z,28.14
2018-06-09T15:35:33.637Z,27.75
2018-06-09T15:38:01.782Z,27.58
2018-06-09T15:40:29.919Z,27.00
2018-06-09T15:42:58.108Z,26.73
2018-06-09T15:45:26.247Z,26.05
2018-06-09T15:47:54.390Z,26.11
2018-06-09T15:50:22.546Z,26.01
2018-06-09T15:52:50.716Z,25.53
2018-06-09T15:55:18.863Z,24.76
2018-06-09T15:57:47.040Z,24.22
2018-06-09T16:00:15.191Z,23.66
2018-06-09T16:02:43.358Z,23.45
2018-06-09T16:08:04.695Z,23.42
2018-06-09T16:10:32.844Z,23.37
2018-06-09T16:13:01.011Z,23.19
2018-06-09T16:15:29.151Z,23.00
2018-06-09T16:17:57.467Z,22.99
2018-06-09T16:20:25.623Z,22.86
2018-06-09T16:22:53.815Z,22.99
2018-06-09T16:25:22.007Z,22.84
2018-06-09T16:27:50.148Z,22.70
2018-06-09T16:30:18.327Z,22.72
2018-06-09T16:32:46.526Z,22.51
2018-06-09T16:35:14.667Z,22.60
2018-06-09T16:37:42.891Z,22.59
2018-06-09T16:40:11.063Z,22.86
2018-06-09T16:42:39.303Z,22.61
2018-06-09T16:45:07.459Z,22.74
2018-06-09T16:47:35.657Z,22.69
2018-06-09T16:50:03.782Z,22.99
2018-06-09T16:52:31.957Z,23.04
2018-06-09T16:55:06.479Z,23.17
2018-06-09T16:57:34.649Z,23.56
2018-06-09T17:00:02.806Z,23.98
2018-06-09T17:02:31.086Z,24.29
2018-06-09T17:04:59.263Z,24.28
2018-06-09T17:07:27.411Z,24.50
2018-06-09T17:09:55.567Z,24.65
2018-06-09T17:12:23.728Z,24.87
2018-06-09T17:14:51.879Z,24.91
2018-06-09T17:17:20.214Z,24.69
2018-06-09T17:19:48.417Z,24.87
2018-06-09T17:22:16.580Z,25.17
2018-06-09T17:24:44.739Z,25.13
2018-06-09T17:27:12.905Z,25.23
2018-06-09T17:29:41.057Z,25.03
2018-06-09T17:32:09.398Z,24.68
2018-06-09T17:34:37.851Z,24.91
2018-06-09T17:37:06.034Z,25.08
2018-06-09T17:39:34.203Z,25.19
2018-06-09T17:42:02.413Z,25.21
2018-06-09T17:44:30.707Z,25.26
2018-06-09T17:46:58.839Z,25.09
2018-06-09T17:49:27.030Z,24.54
2018-06-09T17:51:55.175Z,24.11
2018-06-09T17:54:23.360Z,23.90
2018-06-09T17:56:51.523Z,23.82
2018-06-09T17:59:19.694Z,23.80
2018-06-09T18:01:48.228Z,23.85
2018-06-09T18:04:16.590Z,24.24
2018-06-09T18:06:45.164Z,24.68
2018-06-09T18:09:13.588Z,24.79
2018-06-09T18:11:41.956Z,24.97
2018-06-09T18:14:10.225Z,25.16
2018-06-09T18:16:38.525Z,25.03
2018-06-09T18:19:06.883Z,24.70
2018-06-09T18:21:35.159Z,24.42
2018-06-09T18:24:03.426Z,24.35
2018-06-09T18:26:31.652Z,24.37
2018-06-09T18:28:59.915Z,24.16
2018-06-09T18:31:28.213Z,24.23
2018-06-09T18:33:56.553Z,24.19
2018-06-09T18:36:24.766Z,24.57
2018-06-09T18:38:53.117Z,24.67
2018-06-09T18:41:24.605Z,24.41
2018-06-09T18:43:53.049Z,24.85
2018-06-09T18:46:24.033Z,24.93
2018-06-09T18:48:52.294Z,24.62
2018-06-09T18:51:20.689Z,24.45
2018-06-09T18:53:48.953Z,24.28
2018-06-09T18:56:17.245Z,24.11
2018-06-09T18:58:45.559Z,23.89
2018-06-09T19:01:13.751Z,23.83
2018-06-09T19:03:42.036Z,23.83
2018-06-09T19:06:10.720Z,23.77
2018-06-09T19:08:39.025Z,23.75
2018-06-09T19:11:07.442Z,23.57
2018-06-09T19:13:35.676Z,23.55
2018-06-09T19:16:03.960Z,23.47
2018-06-09T19:18:32.538Z,23.48
2018-06-09T19:21:01.550Z,23.34
2018-06-09T19:23:29.801Z,23.12
2018-06-09T19:25:58.081Z,23.34
2018-06-09T19:28:26.497Z,23.32
2018-06-09T19:30:54.793Z,23.31
2018-06-09T19:33:23.083Z,23.24
2018-06-09T19:35:51.293Z,23.28
2018-06-09T19:38:19.674Z,23.23
2018-06-09T19:40:47.990Z,23.13
2018-06-09T19:43:16.953Z,23.18
2018-06-09T19:46:00.498Z,23.12
2018-06-09T19:48:28.796Z,23.05
2018-06-09T19:50:57.111Z,22.98
2018-06-09T19:53:25.555Z,23.06
2018-06-09T19:55:54.048Z,22.94
2018-06-09T19:58:22.558Z,22.53
2018-06-09T20:00:51.025Z,22.41
2018-06-09T20:03:20.451Z,22.17
2018-06-09T20:05:48.652Z,21.80
2018-06-09T20:08:17.074Z,21.78
2018-06-09T20:10:45.316Z,21.81
2018-06-09T20:13:13.547Z,21.62
2018-06-09T20:15:42.020Z,21.68
2018-06-09T20:18:10.353Z,21.63
2018-06-09T20:20:38.618Z,21.57
2018-06-09T20:23:07.945Z,21.87
2018-06-09T20:25:36.506Z,21.88
2018-06-09T20:28:08.317Z,22.02
2018-06-09T20:30:38.320Z,22.04
2018-06-09T20:33:08.361Z,22.03
2018-06-09T20:35:36.608Z,22.07
2018-06-09T20:38:04.914Z,21.73
2018-06-09T20:40:35.564Z,21.28
2018-06-09T20:43:03.823Z,21.25
2018-06-09T20:45:32.079Z,21.29
2018-06-09T20:48:01.038Z,21.35
2018-06-09T20:50:30.388Z,21.20
2018-06-09T20:52:58.657Z,21.27
2018-06-09T20:55:32.756Z,21.34
2018-06-09T20:58:05.233Z,21.25
2018-06-09T21:00:54.344Z,21.15
2018-06-09T21:03:24.825Z,20.84
2018-06-09T21:05:53.401Z,21.03
2018-06-09T21:08:22.607Z,21.33
2018-06-09T21:10:51.044Z,21.12
2018-06-09T21:13:19.596Z,21.00
2018-06-09T21:15:47.884Z,20.74
2018-06-09T21:18:16.775Z,20.70
2018-06-09T21:23:39.657Z,20.51
2018-06-09T21:26:08.529Z,20.40
2018-06-09T21:28:42.214Z,20.31
2018-06-09T21:31:15.786Z,20.35
2018-06-09T21:34:00.771Z,20.33
2018-06-09T21:36:35.037Z,20.50
2018-06-09T21:39:10.431Z,20.55
2018-06-09T21:41:47.837Z,20.65
2018-06-09T21:44:21.440Z,20.57
2018-06-09T21:46:50.263Z,20.38
2018-06-09T21:49:24.764Z,20.39
2018-06-09T21:51:53.573Z,20.54
2018-06-09T21:54:22.050Z,20.52
2018-06-09T21:56:50.395Z,20.43
2018-06-09T21:59:18.706Z,20.46
2018-06-09T22:01:46.992Z,20.70
2018-06-09T22:04:15.293Z,20.72
2018-06-09T22:06:43.609Z,20.77
2018-06-09T22:09:11.884Z,20.68
2018-06-09T22:11:40.267Z,20.58
2018-06-09T22:14:10.018Z,20.42
2018-06-09T22:16:39.243Z,20.33
2018-06-09T22:19:07.590Z,20.30
2018-06-09T22:21:36.466Z,20.19
2018-06-09T22:24:05.006Z,20.26
2018-06-09T22:26:33.278Z,20.29
2018-06-09T22:29:01.645Z,20.43
2018-06-09T22:31:30.037Z,20.39
2018-06-09T22:33:58.352Z,20.69
2018-06-09T22:36:26.681Z,20.87
2018-06-09T22:38:54.984Z,20.64
2018-06-09T22:41:23.260Z,20.73
2018-06-09T22:43:51.467Z,20.76
2018-06-09T22:46:20.263Z,20.86
2018-06-09T22:48:48.595Z,20.96
2018-06-09T22:51:17.012Z,21.06
2018-06-09T22:53:45.281Z,21.11
2018-06-09T22:56:13.611Z,20.97
2018-06-09T22:58:41.854Z,21.05
2018-06-09T23:01:10.300Z,21.01
2018-06-09T23:03:38.742Z,21.10
2018-06-09T23:06:08.097Z,20.99
2018-06-09T23:08:36.457Z,20.90
2018-06-09T23:11:05.516Z,20.74
2018-06-09T23:13:33.875Z,20.83
2018-06-09T23:16:02.339Z,20.69
2018-06-09T23:18:30.586Z,20.44
2018-06-09T23:20:58.841Z,20.36
2018-06-09T23:23:27.096Z,20.37
2018-06-09T23:25:55.537Z,20.25
2018-06-09T23:28:23.815Z,20.24
2018-06-09T23:30:52.084Z,20.23
2018-06-09T23:33:20.410Z,20.18
2018-06-09T23:35:48.739Z,20.26
2018-06-09T23:38:17.023Z,20.23
2018-06-09T23:40:45.426Z,20.29
2018-06-09T23:43:13.729Z,20.49
2018-06-09T23:45:42.062Z,20.77
2018-06-09T23:48:10.472Z,20.79
2018-06-09T23:50:38.692Z,20.86
2018-06-09T23:53:06.904Z,20.93
2018-06-09T23:55:35.260Z,20.94
2018-06-09T23:58:03.533Z,20.68
